createdAt,value
2023-11-04T00:01:37.887Z,72.03
2023-11-04T00:04:08.120Z,72.29
2023-11-04T00:06:37.530Z,72.22
2023-11-04T00:09:09.158Z,72.18
2023-11-04T00:11:38.500Z,72.47
2023-11-04T00:14:07.854Z,72.50
2023-11-04T00:16:37.154Z,72.88
2023-11-04T00:19:07.126Z,72.48
2023-11-04T00:21:38.131Z,72.60
2023-11-04T00:24:08.026Z,72.57
2023-11-04T00:26:37.374Z,72.70
2023-11-04T00:29:07.102Z,72.46
2023-11-04T00:31:36.480Z,72.69
2023-11-04T00:34:06.022Z,72.72
2023-11-04T00:36:35.323Z,72.73
2023-11-04T00:39:05.365Z,72.76
2023-11-04T00:41:35.582Z,72.93
2023-11-04T00:44:06.677Z,73.21
2023-11-04T00:46:36.270Z,72.88
2023-11-04T00:49:05.613Z,72.87
2023-11-04T00:51:35.600Z,72.79
2023-11-04T00:54:05.339Z,72.71
2023-11-04T00:56:34.817Z,72.58
2023-11-04T00:59:04.300Z,73.07
2023-11-04T01:01:33.619Z,73.20
2023-11-04T01:04:03.008Z,73.25
2023-11-04T01:06:32.376Z,73.10
2023-11-04T01:09:01.666Z,73.42
2023-11-04T01:11:30.980Z,73.32
2023-11-04T01:14:00.261Z,73.39
2023-11-04T01:16:29.603Z,73.45
2023-11-04T01:18:58.961Z,73.55
2023-11-04T01:21:29.025Z,73.44
2023-11-04T01:23:58.367Z,73.86
2023-11-04T01:26:27.609Z,73.53
2023-11-04T01:28:56.883Z,73.59
2023-11-04T01:31:26.195Z,73.54
2023-11-04T01:33:55.708Z,73.83
2023-11-04T01:36:25.239Z,73.81
2023-11-04T01:38:55.390Z,73.65
2023-11-04T01:41:25.846Z,73.90
2023-11-04T01:43:55.117Z,73.92
2023-11-04T01:46:26.251Z,73.83
2023-11-04T01:48:55.736Z,73.95
2023-11-04T01:51:26.178Z,73.95
2023-11-04T01:53:57.431Z,73.79
2023-11-04T01:56:32.537Z,74.07
2023-11-04T01:59:01.877Z,74.05
2023-11-04T02:01:31.736Z,74.13
2023-11-04T02:04:01.412Z,74.26
2023-11-04T02:06:31.033Z,74.08
2023-11-04T02:09:00.804Z,74.18
2023-11-04T02:11:30.418Z,74.29
2023-11-04T02:13:59.737Z,74.16
2023-11-04T02:16:29.017Z,73.86
2023-11-04T02:18:58.351Z,74.23
2023-11-04T02:21:27.788Z,74.11
2023-11-04T02:23:57.129Z,74.15
2023-11-04T02:26:27.072Z,74.15
2023-11-04T02:28:56.447Z,74.35
2023-11-04T02:31:25.904Z,74.40
2023-11-04T02:33:55.327Z,74.26
2023-11-04T02:36:24.611Z,74.14
2023-11-04T02:38:53.911Z,74.23
2023-11-04T02:41:23.434Z,74.35
2023-11-04T02:43:52.763Z,74.71
2023-11-04T02:46:22.005Z,74.26
2023-11-04T02:48:51.474Z,74.50
2023-11-04T02:51:20.800Z,74.51
2023-11-04T02:53:50.098Z,74.49
2023-11-04T02:56:20.640Z,74.72
2023-11-04T02:58:49.987Z,74.41
2023-11-04T03:01:20.332Z,74.47
2023-11-04T03:03:49.694Z,74.59
2023-11-04T03:06:25.410Z,74.41
2023-11-04T03:08:54.709Z,74.64
2023-11-04T03:11:24.452Z,75.31
2023-11-04T03:13:54.267Z,75.76
2023-11-04T03:16:23.912Z,75.77
2023-11-04T03:18:53.815Z,75.89
2023-11-04T03:21:23.374Z,75.58
2023-11-04T03:23:52.913Z,75.81
2023-11-04T03:26:22.221Z,75.67
2023-11-04T03:28:51.538Z,75.56
2023-11-04T03:31:20.914Z,75.82
2023-11-04T03:33:50.291Z,75.48
2023-11-04T03:36:19.627Z,75.77
2023-11-04T03:38:48.924Z,75.62
2023-11-04T03:41:18.242Z,75.40
2023-11-04T03:43:47.544Z,75.58
2023-11-04T03:46:17.040Z,75.67
2023-11-04T03:48:46.840Z,75.22
2023-11-04T03:51:16.234Z,75.85
2023-11-04T03:53:53.374Z,76.08
2023-11-04T03:56:16.524Z,76.08
2023-11-04T03:58:45.849Z,75.79
2023-11-04T04:01:15.476Z,76.31
2023-11-04T04:03:44.869Z,76.12
2023-11-04T04:06:14.286Z,76.17
2023-11-04T04:08:43.642Z,76.16
2023-11-04T04:11:13.016Z,76.13
2023-11-04T04:13:42.352Z,76.41
2023-11-04T04:16:12.382Z,76.51
2023-11-04T04:18:41.810Z,76.35
2023-11-04T04:21:12.982Z,76.35
2023-11-04T04:23:42.273Z,76.19
2023-11-04T04:26:11.666Z,76.34
2023-11-04T04:28:40.928Z,76.03
2023-11-04T04:31:10.258Z,76.30
2023-11-04T04:33:39.659Z,76.14
2023-11-04T04:36:09.666Z,76.16
2023-11-04T04:38:39.902Z,75.59
2023-11-04T04:41:10.237Z,75.62
2023-11-04T04:43:39.576Z,75.96
2023-11-04T04:46:09.461Z,76.04
2023-11-04T04:48:38.810Z,75.65
2023-11-04T04:51:08.713Z,75.69
2023-11-04T04:53:38.120Z,75.74
2023-11-04T04:56:07.888Z,75.48
2023-11-04T04:58:37.209Z,75.55
2023-11-04T05:01:06.789Z,74.95
2023-11-04T05:03:36.234Z,74.84
2023-11-04T05:06:05.821Z,74.75
2023-11-04T05:08:35.103Z,74.81
2023-11-04T05:11:06.334Z,74.93
2023-11-04T05:13:35.631Z,74.90
2023-11-04T05:16:05.198Z,74.86
2023-11-04T05:18:34.861Z,74.95
2023-11-04T05:21:04.244Z,74.52
2023-11-04T05:23:33.546Z,74.82
2023-11-04T05:26:03.009Z,74.83
2023-11-04T05:28:33.140Z,74.86
2023-11-04T05:31:05.568Z,74.83
2023-11-04T05:33:34.944Z,74.74
2023-11-04T05:36:04.278Z,75.16
2023-11-04T05:41:02.884Z,74.91
2023-11-04T05:43:32.158Z,74.58
2023-11-04T05:46:02.635Z,74.86
2023-11-04T05:48:32.460Z,74.72
2023-11-04T05:51:01.728Z,74.67
2023-11-04T05:53:31.785Z,74.65
2023-11-04T05:56:02.278Z,74.70
2023-11-04T05:58:31.749Z,74.89
2023-11-04T06:01:01.086Z,75.01
2023-11-04T06:03:30.789Z,74.74
2023-11-04T06:06:00.268Z,74.91
2023-11-04T06:08:29.640Z,74.49
2023-11-04T06:10:59.609Z,74.75
2023-11-04T06:13:29.346Z,74.56
2023-11-04T06:15:58.682Z,74.85
2023-11-04T06:18:28.037Z,74.67
2023-11-04T06:20:57.313Z,74.56
2023-11-04T06:26:25.715Z,74.34
2023-11-04T06:28:55.011Z,74.44
2023-11-04T06:31:24.453Z,74.42
2023-11-04T06:33:53.851Z,74.71
2023-11-04T06:36:23.180Z,74.61
2023-11-04T06:38:52.464Z,74.71
2023-11-04T06:41:21.946Z,74.99
2023-11-04T06:43:52.967Z,74.67
2023-11-04T06:46:22.344Z,74.64
2023-11-04T06:48:53.220Z,74.61
2023-11-04T06:51:23.156Z,74.74
2023-11-04T06:53:53.020Z,74.46
2023-11-04T06:56:23.925Z,73.96
2023-11-04T06:58:54.390Z,74.07
2023-11-04T07:01:25.171Z,74.13
2023-11-04T07:03:54.962Z,73.96
2023-11-04T07:06:25.463Z,73.65
2023-11-04T07:08:56.531Z,73.84
2023-11-04T07:11:25.800Z,73.76
2023-11-04T07:13:55.436Z,73.45
2023-11-04T07:16:24.770Z,73.66
2023-11-04T07:18:54.142Z,73.40
2023-11-04T07:21:23.662Z,73.63
2023-11-04T07:23:53.026Z,73.24
2023-11-04T07:26:22.403Z,73.71
2023-11-04T07:28:54.432Z,73.32
2023-11-04T07:31:23.986Z,73.57
2023-11-04T07:33:53.352Z,73.30
2023-11-04T07:36:28.840Z,73.33
2023-11-04T07:38:58.594Z,73.30
2023-11-04T07:41:27.882Z,73.27
2023-11-04T07:43:57.141Z,73.55
2023-11-04T07:46:28.102Z,73.42
2023-11-04T07:48:57.630Z,73.24
2023-11-04T07:51:27.625Z,72.92
2023-11-04T07:53:56.935Z,73.34
2023-11-04T07:56:27.394Z,73.15
2023-11-04T07:58:56.822Z,72.82
2023-11-04T08:01:26.089Z,72.97
2023-11-04T08:03:55.532Z,72.86
2023-11-04T08:06:24.999Z,72.76
2023-11-04T08:08:54.277Z,72.88
2023-11-04T08:11:23.832Z,72.76
2023-11-04T08:16:49.640Z,72.83
2023-11-04T08:19:19.076Z,72.03
2023-11-04T08:21:53.197Z,72.07
2023-11-04T08:24:22.586Z,71.98
2023-11-04T08:26:51.945Z,72.07
2023-11-04T08:29:21.620Z,71.68
2023-11-04T08:31:51.057Z,71.60
2023-11-04T08:34:20.445Z,71.05
2023-11-04T08:36:49.921Z,71.49
2023-11-04T08:39:19.508Z,71.07
2023-11-04T08:41:49.159Z,70.98
2023-11-04T08:44:19.091Z,71.43
2023-11-04T08:46:48.407Z,70.93
2023-11-04T08:49:18.280Z,70.61
2023-11-04T08:51:47.593Z,69.84
2023-11-04T08:54:16.953Z,69.92
2023-11-04T08:56:47.970Z,69.62
2023-11-04T08:59:17.383Z,69.66
2023-11-04T09:01:48.451Z,69.78
2023-11-04T09:04:24.132Z,69.67
2023-11-04T09:06:48.889Z,69.17
2023-11-04T09:09:20.155Z,69.62
2023-11-04T09:11:49.952Z,69.41
2023-11-04T09:14:19.404Z,69.18
2023-11-04T09:16:50.305Z,68.92
2023-11-04T09:19:19.982Z,68.84
2023-11-04T09:21:49.382Z,68.85
2023-11-04T09:24:18.664Z,68.52
2023-11-04T09:26:48.043Z,69.22
2023-11-04T09:29:17.366Z,68.96
2023-11-04T09:31:46.650Z,68.79
2023-11-04T09:34:16.159Z,68.56
2023-11-04T09:36:45.514Z,68.72
2023-11-04T09:39:16.450Z,68.66
2023-11-04T09:41:46.998Z,68.89
2023-11-04T09:44:16.315Z,68.82
2023-11-04T09:46:46.379Z,69.21
2023-11-04T09:49:15.782Z,68.95
2023-11-04T09:51:45.242Z,68.91
2023-11-04T09:54:14.787Z,68.96
2023-11-04T09:56:45.447Z,69.11
2023-11-04T09:59:15.000Z,69.05
2023-11-04T10:01:44.703Z,69.25
2023-11-04T10:04:14.183Z,69.00
2023-11-04T10:06:43.888Z,69.49
2023-11-04T10:09:13.224Z,69.09
2023-11-04T10:11:42.531Z,68.77
2023-11-04T10:14:11.822Z,69.01
2023-11-04T10:16:41.088Z,68.95
2023-11-04T10:19:10.532Z,69.50
2023-11-04T10:21:40.033Z,68.98
2023-11-04T10:24:10.389Z,68.73
2023-11-04T10:26:39.680Z,68.79
2023-11-04T10:29:09.292Z,69.12
2023-11-04T10:31:40.486Z,68.75
2023-11-04T10:34:11.255Z,68.68
2023-11-04T10:36:40.816Z,68.61
2023-11-04T10:39:12.296Z,69.14
2023-11-04T10:41:59.498Z,69.98
2023-11-04T10:44:30.988Z,71.23
2023-11-04T10:47:14.114Z,72.67
2023-11-04T10:50:05.275Z,72.84
2023-11-04T10:52:36.823Z,72.78
2023-11-04T10:57:54.773Z,73.10
2023-11-04T11:00:26.487Z,73.48
2023-11-04T11:02:55.988Z,73.95
2023-11-04T11:05:26.479Z,74.90
2023-11-04T11:07:55.771Z,74.59
2023-11-04T11:10:28.270Z,75.54
2023-11-04T11:13:09.929Z,75.39
2023-11-04T11:15:39.712Z,75.65
2023-11-04T11:18:10.612Z,76.33
2023-11-04T11:20:40.502Z,77.03
2023-11-04T11:23:14.079Z,76.89
2023-11-04T11:25:44.169Z,76.91
2023-11-04T11:28:24.148Z,77.98
2023-11-04T11:30:56.327Z,77.95
2023-11-04T11:33:31.843Z,78.22
2023-11-04T11:36:02.791Z,78.35
2023-11-04T11:38:33.192Z,78.37
2023-11-04T11:41:09.332Z,79.23
2023-11-04T11:43:38.719Z,79.16
2023-11-04T11:46:09.905Z,79.36
2023-11-04T11:48:40.619Z,79.77
2023-11-04T11:51:13.210Z,80.09
2023-11-04T11:53:43.740Z,80.35
2023-11-04T11:56:13.427Z,80.39
2023-11-04T11:58:44.277Z,80.97
2023-11-04T12:01:13.733Z,81.41
2023-11-04T12:03:43.205Z,81.38
2023-11-04T12:06:15.367Z,81.52
2023-11-04T12:08:44.693Z,81.87
2023-11-04T12:11:14.035Z,82.06
2023-11-04T12:13:43.294Z,81.67
2023-11-04T12:16:13.250Z,81.93
2023-11-04T12:18:42.615Z,82.15
2023-11-04T12:21:13.005Z,81.89
2023-11-04T12:23:42.392Z,81.81
2023-11-04T12:26:11.649Z,81.40
2023-11-04T12:28:42.264Z,81.53
2023-11-04T12:31:14.026Z,81.95
2023-11-04T12:33:46.544Z,82.25
2023-11-04T12:36:16.437Z,82.18
2023-11-04T12:38:47.758Z,82.13
2023-11-04T12:41:21.177Z,82.49
2023-11-04T12:43:52.568Z,82.28
2023-11-04T12:46:24.983Z,82.31
2023-11-04T12:48:54.367Z,81.83
2023-11-04T12:51:26.236Z,81.86
2023-11-04T12:53:56.916Z,81.91
2023-11-04T12:56:26.196Z,81.71
2023-11-04T12:58:55.466Z,81.56
2023-11-04T13:01:24.872Z,81.98
2023-11-04T13:03:56.110Z,82.13
2023-11-04T13:06:25.475Z,81.82
2023-11-04T13:08:54.803Z,82.07
2023-11-04T13:11:27.094Z,82.10
2023-11-04T13:13:56.376Z,82.20
2023-11-04T13:16:27.429Z,81.52
2023-11-04T13:18:57.314Z,81.49
2023-11-04T13:21:28.879Z,81.81
2023-11-04T13:23:58.215Z,82.05
2023-11-04T13:26:27.528Z,82.26
2023-11-04T13:28:56.783Z,82.11
2023-11-04T13:31:26.191Z,82.38
2023-11-04T13:33:55.545Z,82.41
2023-11-04T13:36:24.790Z,82.18
2023-11-04T13:39:03.550Z,82.66
2023-11-04T13:41:25.428Z,82.27
2023-11-04T13:43:54.775Z,82.41
2023-11-04T13:46:25.181Z,82.29
2023-11-04T13:48:54.508Z,82.56
2023-11-04T13:51:24.809Z,82.29
2023-11-04T13:53:54.252Z,82.51
2023-11-04T13:56:23.650Z,82.85
2023-11-04T13:58:55.923Z,82.03
2023-11-04T14:01:25.992Z,82.32
2023-11-04T14:03:55.672Z,81.90
2023-11-04T14:06:25.474Z,82.14
2023-11-04T14:08:54.849Z,82.39
2023-11-04T14:11:24.219Z,82.47
2023-11-04T14:13:53.481Z,82.46
2023-11-04T14:16:22.746Z,82.54
2023-11-04T14:18:53.741Z,82.66
2023-11-04T14:21:23.085Z,82.51
2023-11-04T14:23:52.334Z,82.42
2023-11-04T14:26:21.695Z,82.32
2023-11-04T14:28:50.988Z,82.34
2023-11-04T14:31:20.572Z,82.22
2023-11-04T14:33:49.959Z,81.98
2023-11-04T14:36:19.393Z,82.13
2023-11-04T14:38:48.696Z,82.16
2023-11-04T14:41:18.369Z,82.28
2023-11-04T14:43:47.680Z,82.14
2023-11-04T14:46:18.488Z,81.84
2023-11-04T14:48:47.927Z,82.02
2023-11-04T14:51:17.241Z,81.90
2023-11-04T14:53:46.586Z,81.66
2023-11-04T14:56:15.866Z,81.67
2023-11-04T14:58:45.308Z,81.60
2023-11-04T15:01:15.059Z,82.03
2023-11-04T15:03:44.495Z,81.70
2023-11-04T15:06:13.838Z,81.68
2023-11-04T15:08:43.102Z,81.93
2023-11-04T15:11:12.382Z,81.87
2023-11-04T15:13:41.739Z,81.40
2023-11-04T15:16:11.015Z,81.30
2023-11-04T15:18:40.469Z,81.41
2023-11-04T15:21:12.122Z,81.09
2023-11-04T15:23:40.898Z,81.57
2023-11-04T15:26:10.296Z,81.47
2023-11-04T15:28:39.679Z,81.34
2023-11-04T15:31:09.010Z,81.11
2023-11-04T15:33:38.476Z,81.11
2023-11-04T15:36:08.425Z,80.78
2023-11-04T15:38:38.173Z,80.98
2023-11-04T15:41:09.084Z,81.01
2023-11-04T15:43:38.664Z,80.87
2023-11-04T15:46:08.083Z,81.15
2023-11-04T15:48:37.413Z,80.95
2023-11-04T15:51:07.265Z,81.02
2023-11-04T15:53:36.999Z,80.94
2023-11-04T15:56:06.828Z,81.30
2023-11-04T15:58:36.192Z,81.20
2023-11-04T16:01:05.814Z,80.94
2023-11-04T16:03:35.781Z,81.56
2023-11-04T16:06:05.330Z,81.34
2023-11-04T16:08:34.799Z,81.28
2023-11-04T16:11:04.212Z,81.70
2023-11-04T16:13:33.493Z,81.69
2023-11-04T16:16:03.019Z,81.55
2023-11-04T16:18:34.175Z,81.75
2023-11-04T16:21:03.618Z,81.90
2023-11-04T16:23:33.061Z,82.16
2023-11-04T16:26:02.436Z,81.67
2023-11-04T16:28:33.485Z,81.85
2023-11-04T16:31:04.634Z,81.60
2023-11-04T16:33:34.067Z,81.48
2023-11-04T16:36:04.129Z,81.73
2023-11-04T16:38:33.435Z,81.89
2023-11-04T16:41:02.762Z,81.46
2023-11-04T16:43:32.054Z,81.50
2023-11-04T16:46:01.483Z,81.33
2023-11-04T16:48:30.894Z,81.50
2023-11-04T16:51:00.204Z,81.47
2023-11-04T16:53:29.477Z,81.67
2023-11-04T16:55:58.761Z,81.30
2023-11-04T16:58:28.073Z,81.45
2023-11-04T17:00:57.592Z,81.71
2023-11-04T17:03:27.240Z,81.47
2023-11-04T17:05:56.710Z,81.33
2023-11-04T17:08:26.036Z,81.19
2023-11-04T17:10:55.340Z,80.98
2023-11-04T17:13:26.370Z,81.14
2023-11-04T17:15:55.914Z,80.84
2023-11-04T17:18:25.317Z,81.71
2023-11-04T17:20:54.668Z,81.28
2023-11-04T17:23:23.978Z,81.02
2023-11-04T17:25:53.588Z,81.38
2023-11-04T17:28:22.950Z,80.74
2023-11-04T17:30:52.304Z,80.46
2023-11-04T17:33:22.013Z,81.23
2023-11-04T17:35:51.386Z,81.20
2023-11-04T17:38:20.665Z,81.82
2023-11-04T17:40:53.047Z,82.04
2023-11-04T17:43:22.539Z,80.59
2023-11-04T17:45:52.943Z,81.13
2023-11-04T17:48:23.281Z,80.56
2023-11-04T17:50:52.893Z,80.40
2023-11-04T17:53:23.955Z,80.86
2023-11-04T17:55:53.341Z,80.74
2023-11-04T17:58:22.640Z,81.08
2023-11-04T18:00:59.384Z,81.33
2023-11-04T18:03:30.432Z,81.71
2023-11-04T18:05:59.745Z,81.92
2023-11-04T18:08:29.140Z,81.92
2023-11-04T18:10:59.737Z,81.94
2023-11-04T18:13:29.304Z,81.86
2023-11-04T18:15:58.686Z,81.99
2023-11-04T18:18:28.077Z,82.03
2023-11-04T18:20:57.927Z,82.05
2023-11-04T18:23:27.252Z,81.96
2023-11-04T18:25:56.601Z,82.02
2023-11-04T18:28:25.883Z,81.81
2023-11-04T18:30:55.379Z,81.61
2023-11-04T18:33:24.693Z,81.73
2023-11-04T18:35:55.786Z,81.77
2023-11-04T18:38:25.305Z,81.93
2023-11-04T18:40:54.679Z,81.70
2023-11-04T18:43:24.008Z,81.43
2023-11-04T18:45:53.322Z,81.54
2023-11-04T18:48:22.703Z,81.50
2023-11-04T18:50:52.030Z,81.29
2023-11-04T18:53:21.297Z,81.31
2023-11-04T18:55:50.650Z,81.39
2023-11-04T18:58:20.243Z,81.21
2023-11-04T19:00:49.666Z,81.26
2023-11-04T19:03:20.130Z,81.74
2023-11-04T19:05:49.453Z,81.95
2023-11-04T19:08:18.888Z,81.92
2023-11-04T19:10:48.201Z,81.74
2023-11-04T19:13:17.526Z,81.71
2023-11-04T19:15:46.816Z,81.91
2023-11-04T19:18:16.382Z,81.37
2023-11-04T19:20:45.742Z,81.15
2023-11-04T19:23:16.000Z,81.21
2023-11-04T19:25:45.281Z,81.51
2023-11-04T19:28:17.034Z,81.29
2023-11-04T19:30:46.389Z,81.17
2023-11-04T19:33:15.988Z,81.02
2023-11-04T19:35:45.377Z,81.13
2023-11-04T19:38:17.576Z,81.05
2023-11-04T19:40:47.183Z,80.79
2023-11-04T19:43:17.042Z,80.83
2023-11-04T19:45:46.876Z,80.44
2023-11-04T19:48:16.323Z,80.03
2023-11-04T19:50:45.836Z,79.80
2023-11-04T19:53:15.056Z,80.00
2023-11-04T19:55:44.503Z,79.91
2023-11-04T19:58:14.043Z,79.94
2023-11-04T20:00:43.438Z,80.22
2023-11-04T20:03:13.019Z,79.92
2023-11-04T20:05:42.630Z,80.13
2023-11-04T20:08:12.220Z,80.30
2023-11-04T20:10:41.487Z,80.58
2023-11-04T20:13:10.785Z,80.46
2023-11-04T20:15:40.092Z,80.48
2023-11-04T20:18:10.237Z,81.22
2023-11-04T20:20:39.524Z,80.86
2023-11-04T20:23:09.094Z,81.81
2023-11-04T20:25:38.499Z,80.90
2023-11-04T20:28:07.822Z,80.88
2023-11-04T20:30:37.150Z,80.80
2023-11-04T20:33:06.696Z,81.23
2023-11-04T20:35:36.205Z,80.67
2023-11-04T20:38:05.520Z,80.42
2023-11-04T20:40:40.082Z,80.74
2023-11-04T20:43:09.997Z,80.16
2023-11-04T20:45:39.372Z,80.31
2023-11-04T20:48:08.796Z,80.08
2023-11-04T20:50:38.347Z,79.89
2023-11-04T20:53:07.593Z,79.96
2023-11-04T20:55:36.912Z,80.14
2023-11-04T20:58:06.425Z,80.10
2023-11-04T21:00:37.118Z,80.23
2023-11-04T21:03:07.198Z,80.38
2023-11-04T21:05:36.731Z,80.13
2023-11-04T21:08:06.261Z,80.15
2023-11-04T21:10:36.017Z,79.63
2023-11-04T21:13:05.420Z,79.88
2023-11-04T21:15:34.808Z,80.06
2023-11-04T21:18:04.312Z,80.53
2023-11-04T21:20:33.671Z,80.32
2023-11-04T21:23:02.914Z,80.26
2023-11-04T21:25:32.848Z,80.56
2023-11-04T21:28:05.581Z,80.10
2023-11-04T21:30:35.014Z,80.08
2023-11-04T21:33:04.432Z,80.56
2023-11-04T21:35:33.769Z,80.40
2023-11-04T21:38:04.073Z,80.22
2023-11-04T21:40:33.420Z,79.73
2023-11-04T21:43:02.742Z,79.14
2023-11-04T21:45:32.089Z,78.53
2023-11-04T21:48:03.538Z,78.41
2023-11-04T21:50:32.602Z,78.47
2023-11-04T21:53:02.468Z,78.33
2023-11-04T21:55:33.224Z,78.49
2023-11-04T21:58:02.619Z,78.29
2023-11-04T22:00:31.994Z,78.60
2023-11-04T22:03:01.379Z,78.27
2023-11-04T22:05:31.221Z,78.19
2023-11-04T22:08:01.002Z,78.61
2023-11-04T22:10:30.354Z,78.53
2023-11-04T22:12:59.678Z,78.35
2023-11-04T22:15:28.970Z,78.72
2023-11-04T22:17:58.404Z,78.58
2023-11-04T22:20:27.833Z,78.28
2023-11-04T22:22:57.162Z,78.54
2023-11-04T22:25:26.623Z,78.61
2023-11-04T22:27:55.923Z,78.14
2023-11-04T22:30:25.235Z,78.32
2023-11-04T22:32:54.534Z,78.12
2023-11-04T22:35:23.920Z,77.81
2023-11-04T22:37:53.238Z,79.78
2023-11-04T22:40:22.620Z,80.17
2023-11-04T22:42:51.975Z,80.00
2023-11-04T22:45:21.345Z,80.23
2023-11-04T22:47:52.296Z,80.08
2023-11-04T22:50:21.613Z,80.43
2023-11-04T22:52:50.948Z,80.57
2023-11-04T22:58:09.248Z,80.36
2023-11-04T23:00:42.902Z,80.03
2023-11-04T23:03:14.013Z,79.96
2023-11-04T23:05:44.227Z,79.94
2023-11-04T23:08:15.329Z,80.03
2023-11-04T23:10:44.715Z,79.86
2023-11-04T23:13:14.017Z,79.57
2023-11-04T23:15:43.293Z,79.40
2023-11-04T23:18:12.655Z,79.82
2023-11-04T23:20:42.023Z,79.51
2023-11-04T23:23:12.187Z,79.56
2023-11-04T23:25:41.482Z,79.61
2023-11-04T23:28:10.867Z,79.78
2023-11-04T23:30:40.226Z,79.39
2023-11-04T23:33:09.776Z,79.42
2023-11-04T23:35:39.066Z,79.49
2023-11-04T23:38:08.398Z,79.28
2023-11-04T23:40:37.719Z,79.16
2023-11-04T23:43:07.060Z,78.96
2023-11-04T23:45:36.409Z,78.98
2023-11-04T23:48:08.801Z,79.13
2023-11-04T23:50:38.139Z,79.56
2023-11-04T23:53:07.452Z,79.25
2023-11-04T23:55:36.762Z,79.31
2023-11-04T23:58:06.085Z,78.92
